Time;durP1;ratioP1;P1;durP2;ratioP2;P2;SDS_P1;SDS_P2;PMS_P1;PMS_P2;Temp;Humidity;BMP_temperature;BMP_pressure;BME280_temperature;BME280_humidity;BME280_pressure;Samples;Min_cycle;Max_cycle;Signal;HPM_P1;HPM_P2
2021/09/29 00:02:16;;;;;;;10.60;5.93;;;10.80;86.30;;;;;;5071931;28;20229;-86
2021/09/29 00:04:42;;;;;;;13.63;6.37;;;10.80;86.50;;;;;;5071879;28;20179;-87
2021/09/29 00:07:08;;;;;;;8.40;5.80;;;10.80;86.40;;;;;;5074659;28;20574;-87
2021/09/29 00:09:34;;;;;;;9.53;5.93;;;10.70;86.50;;;;;;5077423;28;20241;-87
2021/09/29 00:11:59;;;;;;;11.47;6.63;;;10.70;87.10;;;;;;5075830;28;20179;-87
2021/09/29 00:14:26;;;;;;;10.17;6.03;;;10.70;87.50;;;;;;5076464;28;20171;-86
2021/09/29 00:16:52;;;;;;;10.80;6.97;;;10.70;87.60;;;;;;5075884;28;20232;-86
2021/09/29 00:19:17;;;;;;;9.83;6.67;;;10.70;87.50;;;;;;5077051;28;20553;-87
2021/09/29 00:21:43;;;;;;;12.57;5.87;;;10.70;87.60;;;;;;5075714;28;20179;-87
2021/09/29 00:24:09;;;;;;;10.23;5.83;;;10.70;87.50;;;;;;5076948;28;20543;-87
2021/09/29 00:26:35;;;;;;;8.53;5.50;;;10.70;87.50;;;;;;5077346;28;20199;-87
2021/09/29 00:29:01;;;;;;;10.07;6.57;;;10.70;87.40;;;;;;5075664;28;20247;-87
2021/09/29 00:33:58;;;;;;;10.60;5.37;;;10.60;87.10;;;;;;5077105;28;20179;-87
2021/09/29 00:36:25;;;;;;;7.90;5.37;;;10.60;87.00;;;;;;5075460;28;20168;-87
2021/09/29 00:38:51;;;;;;;11.87;5.93;;;10.60;87.00;;;;;;5075272;28;20201;-87
2021/09/29 00:41:17;;;;;;;13.23;6.57;;;10.60;86.90;;;;;;5076571;28;20167;-87
2021/09/29 00:43:42;;;;;;;10.23;6.57;;;10.70;87.50;;;;;;5075144;28;20171;-86
2021/09/29 00:46:08;;;;;;;10.17;6.43;;;10.70;88.60;;;;;;5075030;28;20221;-86
2021/09/29 00:48:34;;;;;;;11.10;6.70;;;10.70;89.20;;;;;;5074927;28;20203;-86
2021/09/29 00:50:59;;;;;;;11.50;6.83;;;10.70;89.20;;;;;;5075009;28;20264;-86
2021/09/29 00:53:25;;;;;;;10.47;6.47;;;10.60;89.30;;;;;;5075079;28;20601;-86
2021/09/29 00:55:51;;;;;;;9.27;6.53;;;10.60;89.50;;;;;;5076236;28;20175;-87
2021/09/29 00:58:17;;;;;;;10.73;7.23;;;10.50;89.60;;;;;;5076026;28;20218;-87
2021/09/29 01:00:43;;;;;;;14.90;6.40;;;10.50;89.70;;;;;;5074901;28;20178;-87
2021/09/29 01:03:10;;;;;;;10.60;6.87;;;10.50;89.90;;;;;;5076155;28;20176;-87
2021/09/29 01:05:38;;;;;;;8.43;6.90;;;10.50;90.00;;;;;;5076071;28;20178;-87
2021/09/29 01:08:13;;;;;;;9.90;6.40;;;10.50;90.00;;;;;;5074652;28;20219;-87
2021/09/29 01:11:33;;;;;;;10.93;6.67;;;10.50;90.20;;;;;;5074783;28;20688;-87
2021/09/29 01:14:04;;;;;;;9.57;6.83;;;10.50;90.40;;;;;;5057206;28;20186;-87
2021/09/29 01:16:34;;;;;;;14.23;6.77;;;10.60;90.70;;;;;;5075690;28;20188;-87
2021/09/29 01:19:01;;;;;;;10.50;6.23;;;10.60;90.90;;;;;;5075179;28;20268;-87
2021/09/29 01:21:31;;;;;;;10.60;6.57;;;10.60;90.80;;;;;;5074695;28;20218;-87
2021/09/29 01:24:06;;;;;;;8.67;6.03;;;10.60;90.90;;;;;;5074502;28;20179;-87
2021/09/29 01:26:36;;;;;;;14.13;6.70;;;10.50;91.00;;;;;;5075691;28;20194;-87
2021/09/29 01:29:11;;;;;;;14.37;6.50;;;10.50;91.00;;;;;;5075634;28;20648;-87
2021/09/29 01:31:37;;;;;;;11.77;5.60;;;10.50;91.00;;;;;;5075638;28;20160;-87
2021/09/29 01:34:05;;;;;;;11.80;6.17;;;10.50;91.10;;;;;;5074392;28;20182;-87
2021/09/29 01:36:31;;;;;;;15.30;6.83;;;10.50;91.10;;;;;;5075536;28;20186;-87
2021/09/29 01:38:58;;;;;;;14.53;7.47;;;10.50;91.10;;;;;;5075431;28;20191;-87
2021/09/29 01:41:26;;;;;;;9.97;5.93;;;10.50;91.10;;;;;;5075065;28;20293;-87
2021/09/29 01:43:53;;;;;;;13.30;6.37;;;10.50;91.20;;;;;;5074146;28;20258;-87
2021/09/29 01:46:19;;;;;;;17.10;6.20;;;10.40;91.10;;;;;;5074336;28;20185;-87
2021/09/29 01:48:54;;;;;;;9.87;6.00;;;10.40;91.20;;;;;;5075225;28;20222;-87
2021/09/29 01:51:20;;;;;;;10.13;6.00;;;10.40;91.30;;;;;;5074068;28;20191;-87
2021/09/29 01:53:49;;;;;;;11.73;6.40;;;10.30;91.20;;;;;;5075262;28;20175;-87
2021/09/29 01:56:17;;;;;;;6.77;5.47;;;10.30;91.20;;;;;;5075124;28;20171;-87
2021/09/29 01:58:43;;;;;;;11.67;6.13;;;10.30;91.30;;;;;;5075331;28;20230;-87
2021/09/29 02:01:08;;;;;;;11.07;6.20;;;10.30;91.30;;;;;;5075045;28;20640;-87
2021/09/29 02:03:34;;;;;;;11.07;6.40;;;10.30;91.40;;;;;;5075014;28;20172;-87
2021/09/29 02:06:00;;;;;;;13.63;5.83;;;10.20;91.40;;;;;;5073701;28;20176;-87
2021/09/29 02:08:25;;;;;;;8.33;5.83;;;10.20;91.40;;;;;;5074944;28;20579;-87
2021/09/29 02:10:51;;;;;;;15.43;6.33;;;10.20;91.40;;;;;;5073575;28;20211;-87
2021/09/29 02:13:17;;;;;;;10.37;5.90;;;10.20;91.40;;;;;;5073553;28;20642;-87
2021/09/29 02:15:42;;;;;;;10.63;5.90;;;10.20;91.40;;;;;;5073664;28;20252;-87
2021/09/29 02:18:08;;;;;;;13.27;6.47;;;10.20;91.40;;;;;;5074673;28;20199;-86
2021/09/29 02:20:34;;;;;;;8.87;6.37;;;10.10;91.40;;;;;;5073476;28;20554;-87
2021/09/29 02:23:00;;;;;;;11.13;6.00;;;10.00;91.50;;;;;;5073410;28;20190;-87
2021/09/29 02:25:26;;;;;;;11.80;5.10;;;10.00;91.60;;;;;;5073251;28;20179;-87
2021/09/29 02:27:51;;;;;;;9.47;5.23;;;10.00;91.60;;;;;;5074396;28;20286;-87
2021/09/29 02:30:17;;;;;;;11.70;6.13;;;10.00;91.60;;;;;;5072322;28;20548;-87
2021/09/29 02:32:42;;;;;;;10.63;6.13;;;10.00;91.60;;;;;;5074448;28;20227;-86
2021/09/29 02:35:10;;;;;;;12.63;5.60;;;10.00;91.50;;;;;;5073097;28;20175;-87
2021/09/29 02:37:36;;;;;;;9.53;5.37;;;10.00;91.70;;;;;;5072966;28;20595;-87
2021/09/29 02:40:03;;;;;;;14.70;5.13;;;10.00;91.70;;;;;;5074312;28;20186;-87
2021/09/29 02:42:29;;;;;;;9.67;5.70;;;10.00;91.70;;;;;;5072985;28;20179;-87
2021/09/29 02:44:54;;;;;;;13.07;5.33;;;10.10;91.70;;;;;;5073021;28;20194;-87
2021/09/29 02:47:20;;;;;;;18.17;4.90;;;10.10;91.70;;;;;;5072778;28;20204;-87
2021/09/29 02:49:46;;;;;;;8.60;5.33;;;10.10;91.70;;;;;;5074061;28;20167;-87
2021/09/29 02:52:11;;;;;;;7.33;5.20;;;10.00;91.60;;;;;;5072778;28;20179;-87
2021/09/29 02:54:37;;;;;;;17.10;5.43;;;10.00;91.60;;;;;;5074003;28;20529;-87
2021/09/29 02:57:03;;;;;;;10.27;5.47;;;10.00;91.60;;;;;;5072718;28;20282;-87
2021/09/29 02:59:28;;;;;;;10.53;6.17;;;10.00;91.70;;;;;;5072511;28;20612;-87
2021/09/29 03:01:54;;;;;;;16.50;6.10;;;10.10;91.70;;;;;;5072834;28;20607;-87
2021/09/29 03:04:20;;;;;;;11.63;6.30;;;10.10;91.50;;;;;;5073176;28;20179;-87
2021/09/29 03:06:45;;;;;;;11.40;5.00;;;10.10;91.60;;;;;;5072564;28;20199;-87
2021/09/29 03:09:11;;;;;;;12.13;4.97;;;10.10;91.50;;;;;;5072435;28;20196;-87
2021/09/29 03:11:37;;;;;;;11.77;5.67;;;10.10;91.60;;;;;;5072409;28;20171;-87
2021/09/29 03:14:02;;;;;;;15.63;5.43;;;10.10;91.70;;;;;;5073630;28;20163;-87
2021/09/29 03:16:28;;;;;;;7.80;5.67;;;10.10;91.60;;;;;;5072355;28;20167;-87
2021/09/29 03:18:55;;;;;;;16.40;6.30;;;10.10;91.70;;;;;;5072289;28;20205;-87
2021/09/29 03:21:21;;;;;;;9.30;5.83;;;10.10;91.80;;;;;;5072330;28;20176;-87
2021/09/29 03:23:46;;;;;;;11.00;5.90;;;10.10;91.80;;;;;;5072359;28;20200;-87
2021/09/29 03:26:12;;;;;;;11.70;6.50;;;10.00;91.80;;;;;;5072258;28;20172;-87
2021/09/29 03:28:38;;;;;;;10.30;6.10;;;10.00;91.90;;;;;;5073222;28;20207;-87
2021/09/29 03:31:03;;;;;;;12.60;6.37;;;10.00;91.90;;;;;;5072359;28;20253;-87
2021/09/29 03:33:29;;;;;;;11.43;6.13;;;9.90;91.90;;;;;;5073730;28;20172;-87
2021/09/29 03:35:54;;;;;;;15.60;9.57;;;9.90;92.00;;;;;;5073334;28;20175;-87
2021/09/29 03:38:20;;;;;;;12.73;6.50;;;9.90;92.10;;;;;;5073584;28;20189;-87
2021/09/29 03:40:46;;;;;;;11.53;6.27;;;9.90;92.10;;;;;;5073044;28;20673;-87
2021/09/29 03:43:12;;;;;;;14.97;7.17;;;9.90;92.00;;;;;;5073242;28;20195;-87
2021/09/29 03:45:37;;;;;;;12.67;6.47;;;10.00;92.20;;;;;;5072059;28;20213;-87
2021/09/29 03:48:03;;;;;;;13.30;6.87;;;10.10;92.20;;;;;;5071871;28;20242;-87
2021/09/29 03:50:29;;;;;;;16.17;6.03;;;10.10;92.20;;;;;;5072056;28;20206;-87
2021/09/29 03:52:56;;;;;;;13.40;6.27;;;10.20;92.20;;;;;;5073235;28;20181;-87
2021/09/29 03:55:22;;;;;;;11.50;6.23;;;10.20;92.20;;;;;;5072063;28;20211;-87
2021/09/29 03:57:48;;;;;;;13.23;6.47;;;10.30;92.20;;;;;;5071865;28;20202;-87
2021/09/29 04:00:14;;;;;;;13.10;6.40;;;10.30;92.20;;;;;;5073079;28;20593;-87
2021/09/29 04:02:41;;;;;;;14.37;6.47;;;10.30;92.20;;;;;;5071896;28;20523;-87
2021/09/29 04:05:08;;;;;;;8.73;6.50;;;10.30;92.30;;;;;;5071923;28;20175;-87
2021/09/29 04:07:34;;;;;;;12.33;6.80;;;10.40;92.20;;;;;;5071731;28;20207;-87
2021/09/29 04:09:59;;;;;;;14.10;6.10;;;10.50;92.20;;;;;;5073120;28;20277;-87
2021/09/29 04:12:25;;;;;;;16.43;6.10;;;10.50;92.20;;;;;;5071874;28;20172;-87
2021/09/29 04:14:53;;;;;;;14.37;6.53;;;10.50;92.10;;;;;;5072076;28;20172;-87
2021/09/29 04:17:19;;;;;;;16.43;7.00;;;10.60;92.10;;;;;;5072059;28;20205;-87
2021/09/29 04:19:44;;;;;;;7.63;5.87;;;10.60;92.10;;;;;;5071796;28;20734;-87
2021/09/29 04:22:11;;;;;;;9.77;6.03;;;10.70;92.00;;;;;;5072913;28;20171;-87
2021/09/29 04:24:44;;;;;;;11.93;6.10;;;10.70;92.00;;;;;;5072820;28;20666;-87
2021/09/29 04:27:10;;;;;;;8.63;5.47;;;10.70;91.90;;;;;;5072827;28;20187;-87
2021/09/29 04:29:37;;;;;;;15.37;6.47;;;10.70;91.80;;;;;;5072773;28;20191;-87
2021/09/29 04:32:03;;;;;;;14.47;5.93;;;10.80;91.80;;;;;;5071707;28;20174;-87
2021/09/29 04:34:29;;;;;;;13.07;5.80;;;10.80;91.80;;;;;;5072783;28;20168;-87
2021/09/29 04:36:54;;;;;;;10.03;5.57;;;10.80;91.80;;;;;;5071625;28;20569;-87
2021/09/29 04:39:20;;;;;;;11.07;6.03;;;10.80;91.90;;;;;;5071472;28;20200;-87
2021/09/29 04:41:46;;;;;;;15.37;6.00;;;10.80;91.90;;;;;;5071546;28;20172;-87
2021/09/29 04:44:11;;;;;;;9.50;5.77;;;10.90;91.90;;;;;;5071572;28;20180;-87
2021/09/29 04:46:37;;;;;;;13.40;5.63;;;10.90;91.80;;;;;;5071409;28;20199;-87
2021/09/29 04:49:03;;;;;;;10.67;5.60;;;10.90;91.70;;;;;;5071473;28;20199;-87
2021/09/29 04:51:29;;;;;;;12.67;5.37;;;10.90;91.80;;;;;;5073033;28;20219;-87
2021/09/29 04:53:54;;;;;;;10.43;5.93;;;11.00;91.60;;;;;;5074930;28;20182;-87
2021/09/29 04:56:20;;;;;;;13.80;5.60;;;11.00;91.70;;;;;;5075166;28;20167;-87
2021/09/29 04:58:46;;;;;;;10.20;5.77;;;11.00;91.50;;;;;;5076446;28;20283;-87
2021/09/29 05:01:13;;;;;;;11.40;5.43;;;11.00;91.60;;;;;;5076206;28;20179;-87
2021/09/29 05:03:39;;;;;;;8.77;5.50;;;11.00;91.60;;;;;;5074955;28;20674;-87
2021/09/29 05:06:04;;;;;;;10.73;5.80;;;11.00;91.60;;;;;;5076104;28;20172;-87
2021/09/29 05:08:34;;;;;;;16.03;6.57;;;10.90;91.60;;;;;;5075899;28;20576;-87
2021/09/29 05:11:18;;;;;;;12.03;5.80;;;11.00;91.70;;;;;;5076052;28;20543;-87
2021/09/29 05:13:43;;;;;;;17.13;6.13;;;10.90;91.70;;;;;;5074775;28;20631;-87
2021/09/29 05:16:10;;;;;;;10.87;6.30;;;10.90;91.70;;;;;;5075956;28;20240;-87
2021/09/29 05:18:35;;;;;;;9.80;5.83;;;11.00;91.70;;;;;;5074573;28;20191;-87
2021/09/29 05:21:01;;;;;;;19.70;6.03;;;10.90;91.70;;;;;;5075892;28;20168;-87
2021/09/29 05:23:27;;;;;;;12.10;6.40;;;11.00;91.80;;;;;;5074579;28;20639;-87
2021/09/29 05:25:53;;;;;;;10.53;5.53;;;11.00;91.70;;;;;;5074573;28;20189;-87
2021/09/29 05:28:23;;;;;;;12.87;5.77;;;11.00;91.70;;;;;;5075616;28;20242;-87
2021/09/29 05:30:49;;;;;;;10.23;6.30;;;11.00;91.60;;;;;;5075724;28;20156;-87
2021/09/29 05:33:15;;;;;;;11.60;6.20;;;11.10;91.50;;;;;;5075931;28;20229;-87
2021/09/29 05:35:40;;;;;;;15.37;6.00;;;11.10;91.50;;;;;;5074378;28;20175;-87
2021/09/29 05:38:06;;;;;;;14.40;6.77;;;11.10;91.50;;;;;;5075486;28;20195;-87
2021/09/29 05:40:32;;;;;;;17.83;7.23;;;11.10;91.40;;;;;;5075505;28;20172;-87
2021/09/29 05:42:57;;;;;;;9.93;6.57;;;11.10;91.40;;;;;;5074325;28;20254;-87
2021/09/29 05:45:23;;;;;;;10.73;6.87;;;11.10;91.40;;;;;;5074202;28;20182;-87
2021/09/29 05:47:49;;;;;;;12.37;6.40;;;11.10;91.50;;;;;;5073982;28;20214;-87
2021/09/29 05:50:15;;;;;;;16.97;7.07;;;11.20;91.40;;;;;;5074114;28;20678;-87
2021/09/29 05:52:41;;;;;;;13.90;7.17;;;11.10;91.40;;;;;;5075253;28;20600;-87
2021/09/29 05:55:07;;;;;;;20.63;7.37;;;11.20;91.50;;;;;;5073978;28;20258;-87
2021/09/29 05:57:33;;;;;;;28.33;7.73;;;11.20;91.40;;;;;;5074518;28;20266;-87
2021/09/29 05:59:59;;;;;;;22.97;8.73;;;11.20;91.50;;;;;;5073805;28;20294;-87
2021/09/29 06:02:24;;;;;;;14.83;6.93;;;11.20;91.50;;;;;;5073821;28;20187;-87
2021/09/29 06:04:50;;;;;;;17.57;7.70;;;11.20;91.50;;;;;;5074871;28;20182;-87
2021/09/29 06:07:17;;;;;;;25.10;8.63;;;11.30;91.50;;;;;;5073610;28;20199;-87
2021/09/29 06:09:44;;;;;;;25.23;7.77;;;11.30;91.40;;;;;;5073654;28;20196;-87
2021/09/29 06:12:11;;;;;;;31.60;8.03;;;11.30;91.20;;;;;;5074955;28;20533;-87
2021/09/29 06:14:38;;;;;;;14.87;6.80;;;11.40;91.30;;;;;;5074880;28;20187;-87
2021/09/29 06:19:49;;;;;;;15.50;5.83;;;11.40;91.30;;;;;;5075070;28;20166;-87
2021/09/29 06:22:16;;;;;;;9.90;6.13;;;11.50;91.30;;;;;;5073483;28;20233;-87
2021/09/29 06:24:42;;;;;;;10.60;5.73;;;11.50;91.30;;;;;;5073385;28;20178;-87
2021/09/29 06:27:08;;;;;;;11.17;6.37;;;11.50;91.30;;;;;;5074462;28;20229;-87
2021/09/29 06:29:34;;;;;;;12.90;6.33;;;11.50;91.20;;;;;;5073297;28;20191;-87
2021/09/29 06:32:02;;;;;;;17.20;6.80;;;11.60;91.20;;;;;;5074425;28;20658;-87
2021/09/29 06:34:28;;;;;;;13.17;6.43;;;11.60;91.20;;;;;;5073139;28;20172;-88
2021/09/29 06:36:54;;;;;;;13.43;6.70;;;11.70;91.10;;;;;;5073064;28;20639;-87
2021/09/29 06:39:20;;;;;;;14.20;7.17;;;11.70;91.10;;;;;;5072982;28;20191;-87
2021/09/29 06:41:46;;;;;;;10.40;6.17;;;11.70;91.20;;;;;;5074311;28;20181;-87
2021/09/29 06:44:13;;;;;;;15.47;6.67;;;11.70;91.10;;;;;;5073025;28;20199;-87
2021/09/29 06:46:39;;;;;;;9.73;5.77;;;11.80;91.10;;;;;;5074021;28;20246;-87
2021/09/29 06:49:05;;;;;;;11.00;6.30;;;11.80;91.00;;;;;;5072736;28;20195;-86
2021/09/29 06:51:31;;;;;;;11.63;6.13;;;11.80;91.10;;;;;;5072800;28;20171;-86
2021/09/29 06:53:58;;;;;;;11.53;6.33;;;11.90;91.10;;;;;;5072697;28;20175;-86
2021/09/29 06:56:24;;;;;;;15.43;6.87;;;11.90;91.10;;;;;;5072640;28;20179;-86
2021/09/29 06:58:52;;;;;;;15.17;6.70;;;11.90;91.10;;;;;;5073743;28;20206;-86
2021/09/29 07:01:18;;;;;;;11.40;6.23;;;12.00;90.90;;;;;;5073854;28;20708;-86
2021/09/29 07:03:44;;;;;;;13.37;6.47;;;12.00;91.00;;;;;;5072521;28;20283;-86
2021/09/29 07:06:10;;;;;;;13.53;7.50;;;12.00;91.10;;;;;;5074036;28;20643;-86
2021/09/29 07:08:36;;;;;;;14.33;7.00;;;12.10;90.90;;;;;;5073889;28;20211;-86
2021/09/29 07:11:03;;;;;;;14.77;7.13;;;12.20;91.00;;;;;;5073637;28;20585;-87
2021/09/29 07:13:29;;;;;;;11.37;6.57;;;12.20;90.90;;;;;;5072374;28;20175;-86
2021/09/29 07:15:55;;;;;;;17.57;7.07;;;12.30;90.90;;;;;;5071828;28;20266;-86
2021/09/29 07:18:20;;;;;;;15.10;8.20;;;12.30;90.80;;;;;;5073782;28;20335;-87
2021/09/29 07:20:46;;;;;;;14.53;7.50;;;12.40;90.70;;;;;;5073500;28;20172;-86
2021/09/29 07:23:12;;;;;;;17.30;7.80;;;12.50;90.50;;;;;;5073594;28;20593;-87
2021/09/29 07:25:38;;;;;;;12.30;7.40;;;12.50;90.40;;;;;;5072249;28;20184;-87
2021/09/29 07:28:05;;;;;;;12.70;7.17;;;12.60;90.40;;;;;;5073341;28;20203;-86
2021/09/29 07:30:31;;;;;;;13.47;7.17;;;12.70;90.30;;;;;;5072162;28;20178;-86
2021/09/29 07:33:02;;;;;;;15.10;7.43;;;12.80;90.30;;;;;;5072137;28;20188;-87
2021/09/29 07:35:31;;;;;;;19.57;7.43;;;12.80;90.30;;;;;;5072424;28;20600;-87
2021/09/29 07:37:57;;;;;;;17.23;7.27;;;12.80;90.20;;;;;;5072009;28;20191;-87
2021/09/29 07:40:23;;;;;;;16.90;7.83;;;12.80;90.20;;;;;;5072056;28;20228;-87
2021/09/29 07:42:48;;;;;;;12.10;7.73;;;12.90;90.30;;;;;;5072050;28;20643;-87
2021/09/29 07:45:14;;;;;;;16.37;7.87;;;13.00;90.10;;;;;;5073215;28;20171;-87
2021/09/29 07:47:40;;;;;;;15.37;8.13;;;13.10;90.20;;;;;;5071778;28;20241;-87
2021/09/29 07:50:08;;;;;;;18.03;8.80;;;13.20;90.40;;;;;;5072480;28;20175;-87
2021/09/29 07:52:35;;;;;;;18.60;7.80;;;13.20;90.00;;;;;;5073221;28;20175;-87
2021/09/29 07:55:01;;;;;;;17.33;7.77;;;13.30;89.40;;;;;;5071861;28;20270;-87
2021/09/29 07:57:26;;;;;;;16.90;7.43;;;13.30;89.20;;;;;;5073243;28;20258;-87
2021/09/29 07:59:52;;;;;;;14.43;7.40;;;13.30;88.80;;;;;;5073011;28;20659;-87
2021/09/29 08:02:18;;;;;;;11.07;7.23;;;13.50;89.10;;;;;;5071857;28;20244;-87
2021/09/29 08:04:43;;;;;;;13.93;6.87;;;13.60;88.70;;;;;;5071922;28;20183;-88
2021/09/29 08:07:09;;;;;;;12.50;6.77;;;13.70;88.30;;;;;;5073088;28;20195;-88
2021/09/29 08:09:35;;;;;;;11.23;6.53;;;13.70;87.80;;;;;;5072976;28;20574;-88
2021/09/29 08:12:01;;;;;;;12.03;6.70;;;13.80;87.60;;;;;;5071720;28;20262;-87
2021/09/29 08:14:26;;;;;;;11.90;6.80;;;13.90;87.60;;;;;;5073087;28;20250;-88
2021/09/29 08:16:52;;;;;;;9.30;7.00;;;13.90;87.40;;;;;;5071791;28;20210;-88
2021/09/29 08:19:18;;;;;;;8.37;6.47;;;14.00;86.80;;;;;;5071775;28;20293;-88
2021/09/29 08:21:46;;;;;;;12.00;5.67;;;14.10;86.90;;;;;;5073083;28;20186;-88
2021/09/29 08:24:26;;;;;;;14.53;5.90;;;14.20;86.10;;;;;;5072946;28;20172;-88
2021/09/29 08:27:00;;;;;;;10.13;5.37;;;14.20;85.70;;;;;;5071702;28;20252;-88
2021/09/29 08:40:14;;;;;;;13.03;5.27;;;14.50;85.20;;;;;;5072947;28;20191;-88
2021/09/29 08:45:34;;;;;;;8.50;4.87;;;14.50;84.30;;;;;;5077101;28;20217;-88
2021/09/29 08:48:28;;;;;;;6.90;5.07;;;14.50;84.00;;;;;;5075023;28;20210;-88
2021/09/29 09:18:09;;;;;;;10.27;4.93;;;15.00;83.10;;;;;;5076193;28;20227;-88
2021/09/29 09:20:39;;;;;;;10.68;4.78;;;15.10;83.00;;;;;;5074593;28;20213;-88
2021/09/29 09:23:05;;;;;;;8.93;4.60;;;15.30;83.10;;;;;;5075905;28;20151;-88
2021/09/29 09:25:38;;;;;;;8.05;4.35;;;15.40;82.50;;;;;;5074590;28;20224;-88
2021/09/29 09:28:05;;;;;;;11.60;5.30;;;15.70;82.50;;;;;;5075726;28;20199;-88
2021/09/29 09:30:33;;;;;;;12.00;5.28;;;15.80;83.40;;;;;;5074557;28;20544;-88
2021/09/29 09:33:00;;;;;;;7.38;4.43;;;15.90;82.10;;;;;;5074410;28;20178;-88
2021/09/29 09:35:30;;;;;;;8.35;4.30;;;15.90;80.30;;;;;;5075926;28;20168;-88
2021/09/29 09:37:57;;;;;;;6.00;3.67;;;16.10;80.50;;;;;;5074394;28;20253;-88
2021/09/29 09:40:29;;;;;;;7.43;4.13;;;16.10;79.00;;;;;;5073899;28;20554;-88
2021/09/29 09:42:58;;;;;;;9.35;4.40;;;16.10;78.20;;;;;;5075513;28;20235;-88
2021/09/29 09:45:46;;;;;;;12.88;4.50;;;16.10;79.80;;;;;;5075477;28;20254;-88
2021/09/29 09:48:22;;;;;;;5.57;3.58;;;16.20;79.70;;;;;;5074151;28;20211;-88
2021/09/29 09:51:07;;;;;;;9.18;3.95;;;16.40;78.90;;;;;;5074259;28;20182;-88
2021/09/29 09:53:35;;;;;;;8.93;4.07;;;16.50;77.50;;;;;;5074385;28;20159;-88
2021/09/29 09:56:20;;;;;;;6.78;4.35;;;16.40;77.40;;;;;;5075365;28;20542;-88
2021/09/29 09:58:50;;;;;;;6.75;3.85;;;16.60;78.70;;;;;;5073884;28;20654;-87
2021/09/29 10:01:21;;;;;;;9.55;3.53;;;16.60;76.60;;;;;;5073993;28;20172;-88
2021/09/29 10:03:48;;;;;;;7.82;3.72;;;16.60;75.80;;;;;;5075232;28;20250;-88
2021/09/29 10:06:16;;;;;;;8.57;3.45;;;16.70;76.00;;;;;;5075089;28;20217;-88
2021/09/29 10:08:47;;;;;;;7.80;3.63;;;16.60;76.90;;;;;;5074525;28;20717;-88
2021/09/29 10:28:13;;;;;;;7.55;4.43;;;16.90;74.40;;;;;;5074839;28;20210;-88
2021/09/29 10:30:49;;;;;;;9.23;3.45;;;16.80;75.10;;;;;;5074673;28;20162;-89
2021/09/29 10:33:24;;;;;;;8.65;3.47;;;17.00;75.20;;;;;;5074024;28;20538;-88
2021/09/29 10:36:21;;;;;;;7.72;3.50;;;16.80;73.40;;;;;;5073415;28;20727;-88
2021/09/29 10:44:43;;;;;;;7.72;3.35;;;16.70;75.00;;;;;;5075107;28;20162;-87
2021/09/29 11:06:35;;;;;;;6.88;3.58;;;17.60;72.30;;;;;;5074340;28;20166;-88
2021/09/29 11:09:33;;;;;;;8.00;3.22;;;17.60;73.00;;;;;;5073007;28;20215;-88
2021/09/29 11:27:24;;;;;;;4.93;3.03;;;17.50;72.10;;;;;;5073531;28;20191;-88
2021/09/29 11:31:25;;;;;;;6.63;3.58;;;17.30;73.80;;;;;;5074037;28;20156;-89
2021/09/29 12:14:43;;;;;;;5.47;3.03;;;17.90;68.30;;;;;;5077283;28;20213;-88
2021/09/29 12:17:11;;;;;;;6.13;3.22;;;18.00;68.70;;;;;;5076066;28;20207;-88
2021/09/29 12:19:39;;;;;;;9.77;3.47;;;18.20;69.50;;;;;;5075826;28;20808;-89
2021/09/29 12:22:16;;;;;;;9.48;2.90;;;18.10;67.90;;;;;;5077053;28;20305;-89
2021/09/29 12:24:55;;;;;;;7.28;2.85;;;18.20;68.70;;;;;;5075942;28;20167;-89
2021/09/29 12:27:22;;;;;;;6.82;2.78;;;18.40;68.80;;;;;;5076845;28;20214;-89
2021/09/29 12:29:52;;;;;;;6.97;2.28;;;18.10;66.90;;;;;;5075724;28;20175;-89
2021/09/29 12:35:15;;;;;;;5.03;2.47;;;18.20;68.70;;;;;;5076960;28;20519;-89
2021/09/29 12:38:00;;;;;;;3.78;2.20;;;18.20;67.70;;;;;;5075557;28;20286;-89
2021/09/29 12:40:28;;;;;;;6.25;2.40;;;17.80;67.90;;;;;;5075589;28;20181;-89
2021/09/29 12:43:02;;;;;;;4.47;2.50;;;17.80;69.30;;;;;;5075700;28;20235;-89
2021/09/29 12:45:37;;;;;;;10.25;2.75;;;17.80;68.70;;;;;;5075424;28;20174;-89
2021/09/29 12:48:05;;;;;;;4.57;2.50;;;17.70;69.90;;;;;;5075193;28;20766;-88
2021/09/29 12:55:59;;;;;;;6.53;2.53;;;17.50;69.90;;;;;;5076763;28;20205;-89
2021/09/29 12:58:28;;;;;;;6.55;2.65;;;17.50;70.40;;;;;;5079837;28;20202;-89
2021/09/29 13:00:55;;;;;;;5.72;2.55;;;17.40;68.50;;;;;;5075291;28;20298;-89
2021/09/29 13:03:21;;;;;;;6.65;2.55;;;17.20;69.70;;;;;;5076587;28;20160;-89
2021/09/29 13:05:48;;;;;;;4.07;2.22;;;17.10;70.50;;;;;;5075364;28;20171;-89
2021/09/29 13:08:14;;;;;;;4.78;2.20;;;17.10;70.50;;;;;;5074879;28;20214;-88
2021/09/29 13:10:40;;;;;;;10.05;2.53;;;16.90;71.00;;;;;;5074967;28;20202;-89
2021/09/29 13:13:06;;;;;;;3.78;2.33;;;16.70;73.20;;;;;;5074482;28;20643;-88
2021/09/29 13:15:32;;;;;;;7.25;2.55;;;16.60;73.90;;;;;;5074235;28;20220;-88
2021/09/29 13:17:59;;;;;;;4.22;2.45;;;16.50;75.10;;;;;;5074756;28;20244;-87
2021/09/29 13:20:30;;;;;;;5.53;2.20;;;16.50;75.50;;;;;;5076033;28;20167;-87
2021/09/29 13:23:15;;;;;;;7.07;2.35;;;16.40;75.70;;;;;;5074702;28;20220;-87
2021/09/29 13:36:39;;;;;;;7.03;2.17;;;16.30;77.00;;;;;;5075899;28;20166;-87
2021/09/29 13:39:12;;;;;;;6.90;1.88;;;16.10;77.60;;;;;;5075651;28;20186;-87
2021/09/29 13:41:38;;;;;;;5.80;2.53;;;16.10;77.60;;;;;;5075599;28;20160;-87
2021/09/29 13:44:05;;;;;;;5.13;2.67;;;16.00;79.00;;;;;;5075513;28;20166;-88
2021/09/29 13:46:31;;;;;;;5.43;2.22;;;15.90;79.10;;;;;;5074235;28;20567;-87
2021/09/29 13:48:59;;;;;;;4.78;2.33;;;15.80;80.90;;;;;;5075084;28;20567;-87
2021/09/29 13:51:27;;;;;;;8.82;2.50;;;15.80;80.90;;;;;;5075408;28;20164;-87
2021/09/29 13:53:54;;;;;;;3.88;2.33;;;15.70;81.90;;;;;;5074139;28;20263;-87
2021/09/29 13:56:21;;;;;;;6.40;2.78;;;15.60;82.20;;;;;;5074181;28;20171;-87
2021/09/29 13:59:17;;;;;;;7.75;2.55;;;15.60;82.40;;;;;;5073965;28;20211;-87
2021/09/29 14:29:09;;;;;;;10.03;3.23;;;15.10;84.10;;;;;;5074674;28;20214;-87
2021/09/29 14:34:19;;;;;;;7.23;3.00;;;15.10;83.70;;;;;;5075021;28;20209;-87
2021/09/29 14:36:45;;;;;;;7.43;3.30;;;15.10;83.90;;;;;;5074302;28;20548;-87
2021/09/29 14:39:12;;;;;;;7.63;2.93;;;15.10;83.90;;;;;;5073099;28;20808;-87
2021/09/29 14:41:37;;;;;;;8.23;3.07;;;14.90;83.80;;;;;;5074229;28;20167;-87
2021/09/29 14:44:04;;;;;;;5.70;3.47;;;14.90;84.40;;;;;;5073081;28;20196;-87
2021/09/29 14:46:29;;;;;;;3.33;2.70;;;14.80;84.30;;;;;;5073023;28;20171;-87
2021/09/29 14:48:55;;;;;;;7.20;2.90;;;14.70;84.20;;;;;;5072936;28;20218;-87
2021/09/29 14:51:21;;;;;;;8.00;2.90;;;14.70;85.00;;;;;;5073159;28;20647;-87
2021/09/29 14:53:50;;;;;;;6.50;2.73;;;14.60;85.70;;;;;;5073082;28;20221;-87
2021/09/29 14:56:18;;;;;;;6.87;3.17;;;14.70;84.90;;;;;;5073052;28;20647;-87
2021/09/29 14:58:44;;;;;;;9.90;2.90;;;14.70;84.90;;;;;;5072862;28;20234;-87
2021/09/29 15:01:10;;;;;;;7.27;2.83;;;14.70;84.40;;;;;;5072873;28;20639;-87
2021/09/29 15:03:36;;;;;;;6.20;3.43;;;14.70;84.70;;;;;;5074402;28;20179;-87
2021/09/29 15:06:03;;;;;;;8.80;3.03;;;14.60;85.60;;;;;;5074497;28;20175;-87
2021/09/29 15:08:30;;;;;;;4.03;1.77;;;14.30;86.40;;;;;;5072833;28;20629;-87
2021/09/29 15:10:56;;;;;;;3.73;2.10;;;13.80;86.30;;;;;;5074563;28;20271;-88
2021/09/29 15:13:31;;;;;;;3.63;2.00;;;13.30;88.40;;;;;;5072797;28;20663;-88
2021/09/29 15:16:01;;;;;;;5.03;2.13;;;13.20;88.60;;;;;;5073989;28;20152;-88
2021/09/29 15:18:44;;;;;;;2.60;1.87;;;13.20;88.40;;;;;;5072845;28;20202;-87
2021/09/29 15:21:57;;;;;;;2.93;1.50;;;13.10;88.10;;;;;;5074275;28;20162;-87
2021/09/29 15:24:26;;;;;;;4.37;1.23;;;12.90;87.40;;;;;;5070921;28;20187;-87
2021/09/29 15:27:28;;;;;;;3.37;1.57;;;12.80;88.00;;;;;;5072775;28;20164;-87
2021/09/29 15:46:41;;;;;;;2.40;1.60;;;12.50;89.50;;;;;;5073795;28;20201;-87
2021/09/29 15:49:11;;;;;;;3.90;2.00;;;12.50;89.30;;;;;;5073635;28;20239;-87
2021/09/29 16:01:41;;;;;;;3.17;2.10;;;12.50;89.20;;;;;;5073772;28;20178;-87
2021/09/29 16:30:42;;;;;;;3.43;2.80;;;12.30;90.30;;;;;;5073683;28;20164;-88
2021/09/29 16:36:01;;;;;;;3.40;2.70;;;12.30;90.90;;;;;;5064283;28;20172;-88
2021/09/29 16:38:27;;;;;;;6.80;4.27;;;12.30;91.10;;;;;;5071519;28;20690;-88
2021/09/29 16:40:54;;;;;;;5.00;4.50;;;12.30;91.20;;;;;;5071671;28;20671;-88
2021/09/29 16:43:20;;;;;;;6.20;5.10;;;12.30;91.50;;;;;;5071695;28;20175;-88
2021/09/29 16:45:47;;;;;;;5.83;5.23;;;12.20;91.80;;;;;;5071895;28;20183;-88
2021/09/29 16:48:17;;;;;;;4.73;3.80;;;12.20;92.20;;;;;;5071490;28;20211;-88
2021/09/29 16:53:24;;;;;;;3.77;3.40;;;12.00;91.80;;;;;;5076851;28;20198;-88
2021/09/29 16:55:50;;;;;;;4.37;3.60;;;12.00;91.20;;;;;;5076738;28;20170;-88
2021/09/29 16:58:25;;;;;;;2.90;2.60;;;12.10;91.20;;;;;;5076459;28;20203;-88
2021/09/29 17:01:06;;;;;;;2.07;1.87;;;12.00;90.30;;;;;;5075195;28;20257;-87